This is the latest recevied weather packets stored in our database for station/object YO4ISC-13. If no packets are shown the sender has not sent any weather packets the latest 10 day(s).
| Time | Temp. | Humidity | Pressure | Rain* | Wind** | Luminosity | Snow |
|---|---|---|---|---|---|---|---|
| 1777612802 | 7.78° C | 77% | 1025 hPa | - | - | - | - |
| 1777612201 | 7.78° C | 79% | 1025 hPa | - | - | - | - |
| 1777611602 | 6.67° C | 82% | 1025 hPa | - | - | - | - |
| 1777611002 | 6.67° C | 82% | 1024 hPa | - | - | - | - |
| 1777610402 | 6.67° C | 85% | 1025 hPa | - | - | - | - |
| 1777609802 | 6.11° C | 86% | 1024 hPa | - | - | - | - |
| 1777609202 | 5.56° C | 87% | 1025 hPa | - | - | - | - |
| 1777608602 | 5.56° C | 88% | 1024 hPa | - | - | - | - |
| 1777608001 | 5.56° C | 89% | 1024 hPa | - | - | - | - |
| 1777607402 | 5.56° C | 89% | 1024 hPa | - | - | - | - |
| 1777606801 | 5.56° C | 88% | 1024 hPa | - | - | - | - |
| 1777606202 | 5.56° C | 88% | 1024 hPa | - | - | - | - |
| 1777605601 | 5.56° C | 88% | 1024 hPa | - | - | - | - |
| 1777605002 | 5.56° C | 88% | 1024 hPa | - | - | - | - |
| 1777604401 | 5.56° C | 87% | 1024 hPa | - | - | - | - |
| 1777603802 | 6.11° C | 86% | 1024 hPa | - | - | - | - |
| 1777603201 | 6.11° C | 86% | 1024 hPa | - | - | - | - |
| 1777602602 | 6.11° C | 83% | 1024 hPa | - | - | - | - |
| 1777602001 | 6.67° C | 81% | 1024 hPa | - | - | - | - |
| 1777601402 | 6.67° C | 81% | 1024 hPa | - | - | - | - |
| 1777600802 | 6.67° C | 81% | 1024 hPa | - | - | - | - |
| 1777600202 | 6.67° C | 82% | 1024 hPa | - | - | - | - |
| 1777599602 | 6.67° C | 83% | 1024 hPa | - | - | - | - |
| 1777599002 | 6.67° C | 83% | 1024 hPa | - | - | - | - |
| 1777598402 | 6.67° C | 83% | 1025 hPa | - | - | - | - |
* Rain since midnight (hover to see other rain measurements)
** Current wind speed in m/s (hover to see current wind gust speed)